sensor_id;sensor_type;location;lat;lon;timestamp;temperature;humidity
2387;DHT22;49473;50.772;8.768;2023-07-31T00:00:04;17.50;99.90
2387;DHT22;49473;50.772;8.768;2023-07-31T00:02:31;17.50;99.90
2387;DHT22;49473;50.772;8.768;2023-07-31T00:04:58;17.50;99.90
2387;DHT22;49473;50.772;8.768;2023-07-31T00:07:25;17.50;99.90
2387;DHT22;49473;50.772;8.768;2023-07-31T00:09:51;17.60;99.90
2387;DHT22;49473;50.772;8.768;2023-07-31T00:12:20;17.50;99.90
2387;DHT22;49473;50.772;8.768;2023-07-31T00:14:47;17.50;99.90
2387;DHT22;49473;50.772;8.768;2023-07-31T00:17:14;17.50;99.90
2387;DHT22;49473;50.772;8.768;2023-07-31T00:19:41;17.50;99.90
2387;DHT22;49473;50.772;8.768;2023-07-31T00:22:07;17.50;99.90
2387;DHT22;49473;50.772;8.768;2023-07-31T00:24:34;17.40;99.90
2387;DHT22;49473;50.772;8.768;2023-07-31T00:27:01;17.50;99.90
2387;DHT22;49473;50.772;8.768;2023-07-31T00:29:29;17.50;99.90
2387;DHT22;49473;50.772;8.768;2023-07-31T00:31:56;17.50;99.90
2387;DHT22;49473;50.772;8.768;2023-07-31T00:34:22;17.50;99.90
2387;DHT22;49473;50.772;8.768;2023-07-31T00:36:49;17.50;99.90
2387;DHT22;49473;50.772;8.768;2023-07-31T00:39:16;17.50;99.90
2387;DHT22;49473;50.772;8.768;2023-07-31T00:41:43;17.50;99.90
2387;DHT22;49473;50.772;8.768;2023-07-31T00:44:10;17.50;99.90
2387;DHT22;49473;50.772;8.768;2023-07-31T00:46:38;17.50;99.90
2387;DHT22;49473;50.772;8.768;2023-07-31T00:49:05;17.60;99.90
2387;DHT22;49473;50.772;8.768;2023-07-31T00:51:32;17.50;99.90
2387;DHT22;49473;50.772;8.768;2023-07-31T00:53:59;17.60;99.90
2387;DHT22;49473;50.772;8.768;2023-07-31T00:56:26;17.60;99.90
2387;DHT22;49473;50.772;8.768;2023-07-31T00:58:54;17.60;99.90
2387;DHT22;49473;50.772;8.768;2023-07-31T01:01:21;17.50;99.90
2387;DHT22;49473;50.772;8.768;2023-07-31T01:03:50;17.50;99.90
2387;DHT22;49473;50.772;8.768;2023-07-31T01:06:29;17.50;99.90
2387;DHT22;49473;50.772;8.768;2023-07-31T01:09:02;17.50;99.90
2387;DHT22;49473;50.772;8.768;2023-07-31T01:11:32;17.50;99.90
2387;DHT22;49473;50.772;8.768;2023-07-31T01:13:59;17.50;99.90
2387;DHT22;49473;50.772;8.768;2023-07-31T01:16:26;17.50;99.90
2387;DHT22;49473;50.772;8.768;2023-07-31T01:18:54;17.50;99.90
2387;DHT22;49473;50.772;8.768;2023-07-31T01:21:29;17.50;99.90
2387;DHT22;49473;50.772;8.768;2023-07-31T01:24:21;17.50;99.90
2387;DHT22;49473;50.772;8.768;2023-07-31T01:26:55;17.50;99.90
2387;DHT22;49473;50.772;8.768;2023-07-31T01:29:29;17.50;99.90
2387;DHT22;49473;50.772;8.768;2023-07-31T01:32:01;17.50;99.90
2387;DHT22;49473;50.772;8.768;2023-07-31T01:34:29;17.50;99.90
2387;DHT22;49473;50.772;8.768;2023-07-31T01:36:56;17.50;99.90
2387;DHT22;49473;50.772;8.768;2023-07-31T01:39:23;17.50;99.90
2387;DHT22;49473;50.772;8.768;2023-07-31T01:41:52;17.50;99.90
2387;DHT22;49473;50.772;8.768;2023-07-31T01:44:19;17.50;99.90
2387;DHT22;49473;50.772;8.768;2023-07-31T01:46:47;17.50;99.90
2387;DHT22;49473;50.772;8.768;2023-07-31T01:49:13;17.50;99.90
2387;DHT22;49473;50.772;8.768;2023-07-31T01:51:40;17.50;99.90
2387;DHT22;49473;50.772;8.768;2023-07-31T01:54:07;17.40;99.90
2387;DHT22;49473;50.772;8.768;2023-07-31T01:56:33;17.40;99.90
2387;DHT22;49473;50.772;8.768;2023-07-31T01:59:02;17.40;99.90
2387;DHT22;49473;50.772;8.768;2023-07-31T02:01:28;17.40;99.90
2387;DHT22;49473;50.772;8.768;2023-07-31T02:03:55;17.40;99.90
2387;DHT22;49473;50.772;8.768;2023-07-31T02:06:23;17.30;99.90
2387;DHT22;49473;50.772;8.768;2023-07-31T02:08:50;17.40;99.90
2387;DHT22;49473;50.772;8.768;2023-07-31T02:11:16;17.40;99.90
2387;DHT22;49473;50.772;8.768;2023-07-31T02:13:43;17.40;99.90
2387;DHT22;49473;50.772;8.768;2023-07-31T02:16:11;17.40;99.90
2387;DHT22;49473;50.772;8.768;2023-07-31T02:18:38;17.40;99.90
2387;DHT22;49473;50.772;8.768;2023-07-31T02:21:05;17.40;99.90
2387;DHT22;49473;50.772;8.768;2023-07-31T02:23:31;17.40;99.90
2387;DHT22;49473;50.772;8.768;2023-07-31T02:25:58;17.40;99.90
2387;DHT22;49473;50.772;8.768;2023-07-31T02:28:25;17.30;99.90
2387;DHT22;49473;50.772;8.768;2023-07-31T02:30:52;17.30;99.90
2387;DHT22;49473;50.772;8.768;2023-07-31T02:33:20;17.30;99.90
2387;DHT22;49473;50.772;8.768;2023-07-31T02:35:46;17.40;99.90
2387;DHT22;49473;50.772;8.768;2023-07-31T02:38:13;17.40;99.90
2387;DHT22;49473;50.772;8.768;2023-07-31T02:40:40;17.50;99.90
2387;DHT22;49473;50.772;8.768;2023-07-31T02:43:07;17.40;99.90
2387;DHT22;49473;50.772;8.768;2023-07-31T02:45:34;17.40;99.90
2387;DHT22;49473;50.772;8.768;2023-07-31T02:48:01;17.40;99.90
2387;DHT22;49473;50.772;8.768;2023-07-31T02:50:29;17.40;99.90
2387;DHT22;49473;50.772;8.768;2023-07-31T02:52:56;17.40;99.90
2387;DHT22;49473;50.772;8.768;2023-07-31T02:55:22;17.50;99.90
2387;DHT22;49473;50.772;8.768;2023-07-31T02:57:49;17.40;99.90
2387;DHT22;49473;50.772;8.768;2023-07-31T03:00:17;17.40;99.90
2387;DHT22;49473;50.772;8.768;2023-07-31T03:02:44;17.40;99.90
2387;DHT22;49473;50.772;8.768;2023-07-31T03:05:11;17.40;99.90
2387;DHT22;49473;50.772;8.768;2023-07-31T03:07:39;17.40;99.90
2387;DHT22;49473;50.772;8.768;2023-07-31T03:10:07;17.40;99.90
2387;DHT22;49473;50.772;8.768;2023-07-31T03:12:33;17.40;99.90
2387;DHT22;49473;50.772;8.768;2023-07-31T03:15:00;17.40;99.90
2387;DHT22;49473;50.772;8.768;2023-07-31T03:17:27;17.50;99.90
2387;DHT22;49473;50.772;8.768;2023-07-31T03:19:54;17.50;99.90
2387;DHT22;49473;50.772;8.768;2023-07-31T03:22:21;17.30;99.90
2387;DHT22;49473;50.772;8.768;2023-07-31T03:24:49;17.30;99.90
2387;DHT22;49473;50.772;8.768;2023-07-31T03:27:16;17.20;99.90
2387;DHT22;49473;50.772;8.768;2023-07-31T03:29:42;17.10;99.90
2387;DHT22;49473;50.772;8.768;2023-07-31T03:32:09;17.00;99.90
2387;DHT22;49473;50.772;8.768;2023-07-31T03:34:36;17.00;99.90
2387;DHT22;49473;50.772;8.768;2023-07-31T03:37:03;17.00;99.90
2387;DHT22;49473;50.772;8.768;2023-07-31T03:39:31;16.90;99.90
2387;DHT22;49473;50.772;8.768;2023-07-31T03:41:59;16.80;99.90
2387;DHT22;49473;50.772;8.768;2023-07-31T03:44:26;16.80;99.90
2387;DHT22;49473;50.772;8.768;2023-07-31T03:46:52;16.70;99.90
2387;DHT22;49473;50.772;8.768;2023-07-31T03:49:19;16.80;99.90
2387;DHT22;49473;50.772;8.768;2023-07-31T03:51:46;16.70;99.90
2387;DHT22;49473;50.772;8.768;2023-07-31T03:54:13;16.70;99.90
2387;DHT22;49473;50.772;8.768;2023-07-31T03:56:40;16.60;99.90
2387;DHT22;49473;50.772;8.768;2023-07-31T03:59:08;16.60;99.90
2387;DHT22;49473;50.772;8.768;2023-07-31T04:01:35;16.50;99.90
2387;DHT22;49473;50.772;8.768;2023-07-31T04:04:02;16.50;99.90
2387;DHT22;49473;50.772;8.768;2023-07-31T04:06:31;16.50;99.90
2387;DHT22;49473;50.772;8.768;2023-07-31T04:08:58;16.50;99.90
2387;DHT22;49473;50.772;8.768;2023-07-31T04:11:24;16.50;99.90
2387;DHT22;49473;50.772;8.768;2023-07-31T04:13:52;16.50;99.90
2387;DHT22;49473;50.772;8.768;2023-07-31T04:16:21;16.50;99.90
2387;DHT22;49473;50.772;8.768;2023-07-31T04:18:48;16.50;99.90
2387;DHT22;49473;50.772;8.768;2023-07-31T04:21:15;16.60;99.90
2387;DHT22;49473;50.772;8.768;2023-07-31T04:23:41;16.60;99.90
2387;DHT22;49473;50.772;8.768;2023-07-31T04:26:08;16.60;99.90
2387;DHT22;49473;50.772;8.768;2023-07-31T04:28:35;16.50;99.90
2387;DHT22;49473;50.772;8.768;2023-07-31T04:31:02;16.50;99.90
2387;DHT22;49473;50.772;8.768;2023-07-31T04:33:30;16.50;99.90
2387;DHT22;49473;50.772;8.768;2023-07-31T04:35:57;16.50;99.90
2387;DHT22;49473;50.772;8.768;2023-07-31T04:38:23;16.50;99.90
2387;DHT22;49473;50.772;8.768;2023-07-31T04:40:50;16.50;99.90
2387;DHT22;49473;50.772;8.768;2023-07-31T04:43:17;16.60;99.90
2387;DHT22;49473;50.772;8.768;2023-07-31T04:45:46;16.60;99.90
2387;DHT22;49473;50.772;8.768;2023-07-31T04:48:13;16.70;99.90
2387;DHT22;49473;50.772;8.768;2023-07-31T04:50:41;16.70;99.90
2387;DHT22;49473;50.772;8.768;2023-07-31T04:53:08;16.70;99.90
2387;DHT22;49473;50.772;8.768;2023-07-31T04:55:35;16.80;99.90
2387;DHT22;49473;50.772;8.768;2023-07-31T04:58:02;16.80;99.90
2387;DHT22;49473;50.772;8.768;2023-07-31T05:00:29;16.90;99.90
2387;DHT22;49473;50.772;8.768;2023-07-31T05:02:55;16.90;99.90
2387;DHT22;49473;50.772;8.768;2023-07-31T05:05:22;17.00;99.90
2387;DHT22;49473;50.772;8.768;2023-07-31T05:07:50;17.00;99.90
2387;DHT22;49473;50.772;8.768;2023-07-31T05:10:17;17.10;99.90
2387;DHT22;49473;50.772;8.768;2023-07-31T05:12:44;17.10;99.90
2387;DHT22;49473;50.772;8.768;2023-07-31T05:15:11;17.20;99.90
2387;DHT22;49473;50.772;8.768;2023-07-31T05:17:38;17.20;99.90
2387;DHT22;49473;50.772;8.768;2023-07-31T05:20:05;17.20;99.90
2387;DHT22;49473;50.772;8.768;2023-07-31T05:22:32;17.30;99.90
2387;DHT22;49473;50.772;8.768;2023-07-31T05:25:00;17.30;99.90
2387;DHT22;49473;50.772;8.768;2023-07-31T05:27:27;17.30;99.90
2387;DHT22;49473;50.772;8.768;2023-07-31T05:29:54;17.40;99.90
2387;DHT22;49473;50.772;8.768;2023-07-31T05:32:21;17.50;99.90
2387;DHT22;49473;50.772;8.768;2023-07-31T05:34:50;17.60;99.90
2387;DHT22;49473;50.772;8.768;2023-07-31T05:37:17;17.60;99.90
2387;DHT22;49473;50.772;8.768;2023-07-31T05:39:44;17.60;99.90
2387;DHT22;49473;50.772;8.768;2023-07-31T05:42:13;17.70;99.90
2387;DHT22;49473;50.772;8.768;2023-07-31T05:44:40;17.70;99.90
2387;DHT22;49473;50.772;8.768;2023-07-31T05:47:07;17.70;99.90
2387;DHT22;49473;50.772;8.768;2023-07-31T05:49:34;17.80;99.90
2387;DHT22;49473;50.772;8.768;2023-07-31T05:52:01;17.80;99.90
2387;DHT22;49473;50.772;8.768;2023-07-31T05:54:28;17.70;99.90
2387;DHT22;49473;50.772;8.768;2023-07-31T05:56:55;17.70;99.90
2387;DHT22;49473;50.772;8.768;2023-07-31T05:59:23;17.70;99.90
2387;DHT22;49473;50.772;8.768;2023-07-31T06:01:50;17.70;99.90
2387;DHT22;49473;50.772;8.768;2023-07-31T06:04:17;17.70;99.90
2387;DHT22;49473;50.772;8.768;2023-07-31T06:06:44;17.70;99.90
2387;DHT22;49473;50.772;8.768;2023-07-31T06:09:10;17.70;99.90
2387;DHT22;49473;50.772;8.768;2023-07-31T06:11:37;17.80;99.90
2387;DHT22;49473;50.772;8.768;2023-07-31T06:14:04;17.80;99.90
2387;DHT22;49473;50.772;8.768;2023-07-31T06:16:32;17.80;99.90
2387;DHT22;49473;50.772;8.768;2023-07-31T06:18:59;17.80;99.90
2387;DHT22;49473;50.772;8.768;2023-07-31T06:21:26;17.90;99.90
2387;DHT22;49473;50.772;8.768;2023-07-31T06:23:53;17.80;99.90
2387;DHT22;49473;50.772;8.768;2023-07-31T06:26:19;17.90;99.90
2387;DHT22;49473;50.772;8.768;2023-07-31T06:28:46;17.90;99.90
2387;DHT22;49473;50.772;8.768;2023-07-31T06:31:13;17.90;99.90
2387;DHT22;49473;50.772;8.768;2023-07-31T06:33:41;17.90;99.90
2387;DHT22;49473;50.772;8.768;2023-07-31T06:36:08;17.90;99.90
2387;DHT22;49473;50.772;8.768;2023-07-31T06:38:35;18.00;99.90
2387;DHT22;49473;50.772;8.768;2023-07-31T06:41:03;18.00;99.90
2387;DHT22;49473;50.772;8.768;2023-07-31T06:43:29;18.00;99.90
2387;DHT22;49473;50.772;8.768;2023-07-31T06:45:56;18.10;99.90
2387;DHT22;49473;50.772;8.768;2023-07-31T06:48:23;18.10;99.90
2387;DHT22;49473;50.772;8.768;2023-07-31T06:50:51;18.10;99.90
2387;DHT22;49473;50.772;8.768;2023-07-31T06:53:18;18.10;99.90
2387;DHT22;49473;50.772;8.768;2023-07-31T06:55:45;18.10;99.90
2387;DHT22;49473;50.772;8.768;2023-07-31T06:58:13;18.20;99.90
2387;DHT22;49473;50.772;8.768;2023-07-31T07:00:40;18.40;99.90
2387;DHT22;49473;50.772;8.768;2023-07-31T07:03:07;18.50;99.90
2387;DHT22;49473;50.772;8.768;2023-07-31T07:05:34;18.80;99.90
2387;DHT22;49473;50.772;8.768;2023-07-31T07:08:02;19.00;99.90
2387;DHT22;49473;50.772;8.768;2023-07-31T07:10:29;19.20;99.90
2387;DHT22;49473;50.772;8.768;2023-07-31T07:12:55;19.30;99.90
2387;DHT22;49473;50.772;8.768;2023-07-31T07:15:22;19.40;99.90
2387;DHT22;49473;50.772;8.768;2023-07-31T07:17:49;19.40;99.90
2387;DHT22;49473;50.772;8.768;2023-07-31T07:20:16;19.40;99.90
2387;DHT22;49473;50.772;8.768;2023-07-31T07:22:43;19.40;99.90
2387;DHT22;49473;50.772;8.768;2023-07-31T07:25:11;19.40;99.90
2387;DHT22;49473;50.772;8.768;2023-07-31T07:27:38;19.40;99.90
2387;DHT22;49473;50.772;8.768;2023-07-31T07:30:05;19.30;99.90
2387;DHT22;49473;50.772;8.768;2023-07-31T07:32:33;19.30;99.90
2387;DHT22;49473;50.772;8.768;2023-07-31T07:35:00;19.30;99.90
2387;DHT22;49473;50.772;8.768;2023-07-31T07:37:27;19.20;99.90
2387;DHT22;49473;50.772;8.768;2023-07-31T07:39:54;19.20;99.90
2387;DHT22;49473;50.772;8.768;2023-07-31T07:42:22;19.10;99.90
2387;DHT22;49473;50.772;8.768;2023-07-31T07:44:49;19.00;99.90
2387;DHT22;49473;50.772;8.768;2023-07-31T07:47:16;18.90;99.90
2387;DHT22;49473;50.772;8.768;2023-07-31T07:49:43;18.80;99.90
2387;DHT22;49473;50.772;8.768;2023-07-31T07:52:10;18.70;99.90
2387;DHT22;49473;50.772;8.768;2023-07-31T07:54:36;18.60;99.90
2387;DHT22;49473;50.772;8.768;2023-07-31T07:57:04;18.60;99.90
2387;DHT22;49473;50.772;8.768;2023-07-31T07:59:32;18.50;99.90
2387;DHT22;49473;50.772;8.768;2023-07-31T08:01:59;18.60;99.90
2387;DHT22;49473;50.772;8.768;2023-07-31T08:04:25;18.70;99.90
2387;DHT22;49473;50.772;8.768;2023-07-31T08:06:52;18.70;99.90
2387;DHT22;49473;50.772;8.768;2023-07-31T08:09:19;18.80;99.90
2387;DHT22;49473;50.772;8.768;2023-07-31T08:11:46;19.00;99.90
2387;DHT22;49473;50.772;8.768;2023-07-31T08:14:12;19.20;99.90
2387;DHT22;49473;50.772;8.768;2023-07-31T08:16:41;19.30;99.90
2387;DHT22;49473;50.772;8.768;2023-07-31T08:19:07;19.40;99.90
2387;DHT22;49473;50.772;8.768;2023-07-31T08:21:34;19.60;99.90
2387;DHT22;49473;50.772;8.768;2023-07-31T08:24:01;19.70;99.90
2387;DHT22;49473;50.772;8.768;2023-07-31T08:26:28;19.80;99.90
2387;DHT22;49473;50.772;8.768;2023-07-31T08:28:54;20.00;99.90
2387;DHT22;49473;50.772;8.768;2023-07-31T08:31:21;20.30;99.90
2387;DHT22;49473;50.772;8.768;2023-07-31T08:33:49;20.50;99.90
2387;DHT22;49473;50.772;8.768;2023-07-31T08:36:16;20.30;99.90
2387;DHT22;49473;50.772;8.768;2023-07-31T08:38:45;20.10;99.90
2387;DHT22;49473;50.772;8.768;2023-07-31T08:41:12;20.10;99.90
2387;DHT22;49473;50.772;8.768;2023-07-31T08:43:39;20.00;99.90
2387;DHT22;49473;50.772;8.768;2023-07-31T08:46:06;19.90;99.90
2387;DHT22;49473;50.772;8.768;2023-07-31T08:48:35;19.90;99.90
2387;DHT22;49473;50.772;8.768;2023-07-31T08:51:04;20.10;99.90
2387;DHT22;49473;50.772;8.768;2023-07-31T08:53:31;20.40;99.90
2387;DHT22;49473;50.772;8.768;2023-07-31T08:55:58;20.80;99.90
2387;DHT22;49473;50.772;8.768;2023-07-31T08:58:28;21.20;99.90
2387;DHT22;49473;50.772;8.768;2023-07-31T09:00:57;21.40;99.90
2387;DHT22;49473;50.772;8.768;2023-07-31T09:03:25;21.40;99.90
2387;DHT22;49473;50.772;8.768;2023-07-31T09:05:53;21.40;99.90
2387;DHT22;49473;50.772;8.768;2023-07-31T09:08:22;21.30;99.90
2387;DHT22;49473;50.772;8.768;2023-07-31T09:10:49;21.00;99.90
2387;DHT22;49473;50.772;8.768;2023-07-31T09:13:17;20.80;99.90
2387;DHT22;49473;50.772;8.768;2023-07-31T09:15:45;20.50;99.90
2387;DHT22;49473;50.772;8.768;2023-07-31T09:18:12;20.40;99.90
2387;DHT22;49473;50.772;8.768;2023-07-31T09:20:39;20.40;99.90
2387;DHT22;49473;50.772;8.768;2023-07-31T09:23:08;20.60;99.90
2387;DHT22;49473;50.772;8.768;2023-07-31T09:25:38;21.00;99.90
2387;DHT22;49473;50.772;8.768;2023-07-31T09:28:06;21.40;99.90
2387;DHT22;49473;50.772;8.768;2023-07-31T09:30:45;21.80;99.90
2387;DHT22;49473;50.772;8.768;2023-07-31T09:33:12;22.00;99.90
2387;DHT22;49473;50.772;8.768;2023-07-31T09:35:39;22.10;99.90
2387;DHT22;49473;50.772;8.768;2023-07-31T09:38:08;22.40;99.90
2387;DHT22;49473;50.772;8.768;2023-07-31T09:40:37;22.50;99.90
2387;DHT22;49473;50.772;8.768;2023-07-31T09:43:06;22.30;99.90
2387;DHT22;49473;50.772;8.768;2023-07-31T09:45:34;21.90;99.90
2387;DHT22;49473;50.772;8.768;2023-07-31T09:48:01;21.60;99.90
2387;DHT22;49473;50.772;8.768;2023-07-31T09:50:29;21.40;99.90
2387;DHT22;49473;50.772;8.768;2023-07-31T09:52:56;21.30;99.90
2387;DHT22;49473;50.772;8.768;2023-07-31T09:55:24;21.20;99.90
2387;DHT22;49473;50.772;8.768;2023-07-31T09:57:53;21.20;99.90
2387;DHT22;49473;50.772;8.768;2023-07-31T10:00:21;20.90;99.90
2387;DHT22;49473;50.772;8.768;2023-07-31T10:02:51;20.60;99.90
2387;DHT22;49473;50.772;8.768;2023-07-31T10:05:19;20.30;99.90
2387;DHT22;49473;50.772;8.768;2023-07-31T10:07:51;20.00;99.90
2387;DHT22;49473;50.772;8.768;2023-07-31T10:10:20;19.70;99.90
2387;DHT22;49473;50.772;8.768;2023-07-31T10:12:48;19.50;99.90
2387;DHT22;49473;50.772;8.768;2023-07-31T10:15:17;19.50;99.90
2387;DHT22;49473;50.772;8.768;2023-07-31T10:17:47;19.40;99.90
2387;DHT22;49473;50.772;8.768;2023-07-31T10:20:14;19.40;99.90
2387;DHT22;49473;50.772;8.768;2023-07-31T10:22:42;19.40;99.90
2387;DHT22;49473;50.772;8.768;2023-07-31T10:25:09;19.60;99.90
2387;DHT22;49473;50.772;8.768;2023-07-31T10:27:38;19.80;99.90
2387;DHT22;49473;50.772;8.768;2023-07-31T10:30:07;20.00;99.90
2387;DHT22;49473;50.772;8.768;2023-07-31T10:32:38;20.00;99.90
2387;DHT22;49473;50.772;8.768;2023-07-31T10:35:07;20.10;99.90
2387;DHT22;49473;50.772;8.768;2023-07-31T10:37:37;20.00;99.90
2387;DHT22;49473;50.772;8.768;2023-07-31T10:40:06;19.90;99.90
2387;DHT22;49473;50.772;8.768;2023-07-31T10:42:34;19.90;99.90
2387;DHT22;49473;50.772;8.768;2023-07-31T10:45:04;20.00;99.90
2387;DHT22;49473;50.772;8.768;2023-07-31T10:47:31;20.00;99.90
2387;DHT22;49473;50.772;8.768;2023-07-31T10:50:16;19.90;99.90
2387;DHT22;49473;50.772;8.768;2023-07-31T10:52:46;19.80;99.90
2387;DHT22;49473;50.772;8.768;2023-07-31T10:55:15;19.80;99.90
2387;DHT22;49473;50.772;8.768;2023-07-31T10:57:44;19.70;99.90
2387;DHT22;49473;50.772;8.768;2023-07-31T11:00:20;19.60;99.90
2387;DHT22;49473;50.772;8.768;2023-07-31T11:02:57;19.60;99.90
2387;DHT22;49473;50.772;8.768;2023-07-31T11:05:44;19.50;99.90
2387;DHT22;49473;50.772;8.768;2023-07-31T11:08:12;19.40;99.90
2387;DHT22;49473;50.772;8.768;2023-07-31T11:10:39;19.40;99.90
2387;DHT22;49473;50.772;8.768;2023-07-31T11:13:06;19.70;99.90
2387;DHT22;49473;50.772;8.768;2023-07-31T11:15:33;20.00;99.90
2387;DHT22;49473;50.772;8.768;2023-07-31T11:18:00;20.30;99.90
2387;DHT22;49473;50.772;8.768;2023-07-31T11:20:29;20.50;99.90
2387;DHT22;49473;50.772;8.768;2023-07-31T11:23:00;20.50;99.90
2387;DHT22;49473;50.772;8.768;2023-07-31T11:25:28;20.50;99.90
2387;DHT22;49473;50.772;8.768;2023-07-31T11:27:55;20.50;99.90
2387;DHT22;49473;50.772;8.768;2023-07-31T11:30:22;20.30;99.90
2387;DHT22;49473;50.772;8.768;2023-07-31T11:32:49;20.20;99.90
2387;DHT22;49473;50.772;8.768;2023-07-31T11:35:16;20.10;99.90
2387;DHT22;49473;50.772;8.768;2023-07-31T11:37:43;20.10;99.90
2387;DHT22;49473;50.772;8.768;2023-07-31T11:40:12;20.30;99.90
2387;DHT22;49473;50.772;8.768;2023-07-31T11:42:39;20.40;99.90
2387;DHT22;49473;50.772;8.768;2023-07-31T11:45:07;20.50;99.90
2387;DHT22;49473;50.772;8.768;2023-07-31T11:47:35;20.50;99.90
2387;DHT22;49473;50.772;8.768;2023-07-31T11:50:04;20.70;99.90
2387;DHT22;49473;50.772;8.768;2023-07-31T11:52:34;20.80;99.90
2387;DHT22;49473;50.772;8.768;2023-07-31T11:55:04;20.90;99.90
2387;DHT22;49473;50.772;8.768;2023-07-31T11:57:33;21.20;99.90
2387;DHT22;49473;50.772;8.768;2023-07-31T12:00:00;21.30;99.90
2387;DHT22;49473;50.772;8.768;2023-07-31T12:02:28;21.20;99.90
2387;DHT22;49473;50.772;8.768;2023-07-31T12:04:55;21.20;99.90
2387;DHT22;49473;50.772;8.768;2023-07-31T12:07:23;21.20;99.90
2387;DHT22;49473;50.772;8.768;2023-07-31T12:09:52;21.00;99.90
2387;DHT22;49473;50.772;8.768;2023-07-31T12:12:20;20.80;99.90
2387;DHT22;49473;50.772;8.768;2023-07-31T12:14:48;20.80;99.90
2387;DHT22;49473;50.772;8.768;2023-07-31T12:17:17;20.70;99.90
2387;DHT22;49473;50.772;8.768;2023-07-31T12:19:45;20.70;99.90
2387;DHT22;49473;50.772;8.768;2023-07-31T12:22:12;20.80;99.90
2387;DHT22;49473;50.772;8.768;2023-07-31T12:24:39;20.80;99.90
2387;DHT22;49473;50.772;8.768;2023-07-31T12:27:10;21.00;99.90
2387;DHT22;49473;50.772;8.768;2023-07-31T12:29:37;21.00;99.90
2387;DHT22;49473;50.772;8.768;2023-07-31T12:32:19;21.20;99.90
2387;DHT22;49473;50.772;8.768;2023-07-31T12:34:45;21.30;99.90
2387;DHT22;49473;50.772;8.768;2023-07-31T12:37:12;21.40;99.90
2387;DHT22;49473;50.772;8.768;2023-07-31T12:39:39;21.70;99.90
2387;DHT22;49473;50.772;8.768;2023-07-31T12:42:06;21.80;99.90
2387;DHT22;49473;50.772;8.768;2023-07-31T12:44:33;21.90;99.90
2387;DHT22;49473;50.772;8.768;2023-07-31T12:47:00;22.20;99.90
2387;DHT22;49473;50.772;8.768;2023-07-31T12:49:28;22.40;99.90
2387;DHT22;49473;50.772;8.768;2023-07-31T12:51:54;22.40;99.90
2387;DHT22;49473;50.772;8.768;2023-07-31T12:54:21;22.30;99.90
2387;DHT22;49473;50.772;8.768;2023-07-31T12:56:48;22.20;99.90
2387;DHT22;49473;50.772;8.768;2023-07-31T12:59:14;22.50;99.90
2387;DHT22;49473;50.772;8.768;2023-07-31T13:01:41;22.70;99.90
2387;DHT22;49473;50.772;8.768;2023-07-31T13:04:08;22.80;99.90
2387;DHT22;49473;50.772;8.768;2023-07-31T13:06:36;22.90;99.90
2387;DHT22;49473;50.772;8.768;2023-07-31T13:09:03;22.80;99.90
2387;DHT22;49473;50.772;8.768;2023-07-31T13:11:30;22.90;99.90
2387;DHT22;49473;50.772;8.768;2023-07-31T13:13:56;23.00;99.90
2387;DHT22;49473;50.772;8.768;2023-07-31T13:16:23;22.90;99.90
2387;DHT22;49473;50.772;8.768;2023-07-31T13:18:50;22.60;99.90
2387;DHT22;49473;50.772;8.768;2023-07-31T13:21:18;22.40;99.90
2387;DHT22;49473;50.772;8.768;2023-07-31T13:23:48;22.20;99.90
2387;DHT22;49473;50.772;8.768;2023-07-31T13:26:15;22.10;99.90
2387;DHT22;49473;50.772;8.768;2023-07-31T13:28:41;21.90;99.90
2387;DHT22;49473;50.772;8.768;2023-07-31T13:31:08;21.70;99.90
2387;DHT22;49473;50.772;8.768;2023-07-31T13:33:36;21.70;99.90
2387;DHT22;49473;50.772;8.768;2023-07-31T13:36:03;21.90;99.90
2387;DHT22;49473;50.772;8.768;2023-07-31T13:38:30;22.20;99.90
2387;DHT22;49473;50.772;8.768;2023-07-31T13:40:58;22.50;99.90
2387;DHT22;49473;50.772;8.768;2023-07-31T13:43:25;22.50;99.90
2387;DHT22;49473;50.772;8.768;2023-07-31T13:45:52;22.60;99.90
2387;DHT22;49473;50.772;8.768;2023-07-31T13:48:19;22.80;99.90
2387;DHT22;49473;50.772;8.768;2023-07-31T13:50:45;22.90;99.90
2387;DHT22;49473;50.772;8.768;2023-07-31T13:53:12;22.80;99.90
2387;DHT22;49473;50.772;8.768;2023-07-31T13:55:39;22.70;99.90
2387;DHT22;49473;50.772;8.768;2023-07-31T13:58:07;22.60;99.90
2387;DHT22;49473;50.772;8.768;2023-07-31T14:00:34;22.50;99.90
2387;DHT22;49473;50.772;8.768;2023-07-31T14:03:01;22.50;99.90
2387;DHT22;49473;50.772;8.768;2023-07-31T14:05:28;22.60;99.90
2387;DHT22;49473;50.772;8.768;2023-07-31T14:07:55;22.50;99.90
2387;DHT22;49473;50.772;8.768;2023-07-31T14:10:21;22.70;99.90
2387;DHT22;49473;50.772;8.768;2023-07-31T14:12:48;22.80;99.90
2387;DHT22;49473;50.772;8.768;2023-07-31T14:15:16;22.90;99.90
2387;DHT22;49473;50.772;8.768;2023-07-31T14:17:43;23.10;99.90
2387;DHT22;49473;50.772;8.768;2023-07-31T14:20:11;23.30;99.90
2387;DHT22;49473;50.772;8.768;2023-07-31T14:22:38;23.30;99.90
2387;DHT22;49473;50.772;8.768;2023-07-31T14:25:05;23.30;99.90
2387;DHT22;49473;50.772;8.768;2023-07-31T14:27:33;23.30;99.90
2387;DHT22;49473;50.772;8.768;2023-07-31T14:30:00;23.10;99.90
2387;DHT22;49473;50.772;8.768;2023-07-31T14:32:28;23.10;99.90
2387;DHT22;49473;50.772;8.768;2023-07-31T14:34:54;23.30;99.90
2387;DHT22;49473;50.772;8.768;2023-07-31T14:37:21;23.30;99.90
2387;DHT22;49473;50.772;8.768;2023-07-31T14:39:48;23.40;99.90
2387;DHT22;49473;50.772;8.768;2023-07-31T14:42:15;23.50;99.90
2387;DHT22;49473;50.772;8.768;2023-07-31T14:44:43;23.50;99.90
2387;DHT22;49473;50.772;8.768;2023-07-31T14:47:12;23.50;99.90
2387;DHT22;49473;50.772;8.768;2023-07-31T14:49:40;23.30;99.90
2387;DHT22;49473;50.772;8.768;2023-07-31T14:52:07;23.10;99.90
2387;DHT22;49473;50.772;8.768;2023-07-31T14:54:34;22.80;99.90
2387;DHT22;49473;50.772;8.768;2023-07-31T14:57:01;22.60;99.90
2387;DHT22;49473;50.772;8.768;2023-07-31T14:59:28;22.40;99.90
2387;DHT22;49473;50.772;8.768;2023-07-31T15:01:55;22.40;99.90
2387;DHT22;49473;50.772;8.768;2023-07-31T15:04:22;22.30;99.90
2387;DHT22;49473;50.772;8.768;2023-07-31T15:06:50;22.00;99.90
2387;DHT22;49473;50.772;8.768;2023-07-31T15:09:16;22.00;99.90
2387;DHT22;49473;50.772;8.768;2023-07-31T15:11:43;21.90;99.90
2387;DHT22;49473;50.772;8.768;2023-07-31T15:14:10;22.00;99.90
2387;DHT22;49473;50.772;8.768;2023-07-31T15:16:37;22.00;99.90
2387;DHT22;49473;50.772;8.768;2023-07-31T15:19:04;22.00;99.90
2387;DHT22;49473;50.772;8.768;2023-07-31T15:21:30;22.10;99.90
2387;DHT22;49473;50.772;8.768;2023-07-31T15:23:58;22.20;99.90
2387;DHT22;49473;50.772;8.768;2023-07-31T15:26:25;22.20;99.90
2387;DHT22;49473;50.772;8.768;2023-07-31T15:29:00;22.20;99.90
2387;DHT22;49473;50.772;8.768;2023-07-31T15:31:27;22.20;99.90
2387;DHT22;49473;50.772;8.768;2023-07-31T15:33:54;22.20;99.90
2387;DHT22;49473;50.772;8.768;2023-07-31T15:36:20;22.20;99.90
2387;DHT22;49473;50.772;8.768;2023-07-31T15:38:47;22.20;99.90
2387;DHT22;49473;50.772;8.768;2023-07-31T15:41:17;22.30;99.90
2387;DHT22;49473;50.772;8.768;2023-07-31T15:43:44;22.30;99.90
2387;DHT22;49473;50.772;8.768;2023-07-31T15:46:11;22.30;99.90